createdAt,value
2023-02-28T00:00:52.735Z,1.67
2023-02-28T00:01:52.828Z,1.67
2023-02-28T00:02:52.774Z,1.68
2023-02-28T00:03:52.806Z,1.57
2023-02-28T00:04:52.846Z,1.53
2023-02-28T00:05:52.874Z,1.60
2023-02-28T00:06:52.916Z,1.66
2023-02-28T00:07:52.949Z,1.71
2023-02-28T00:08:52.981Z,1.75
2023-02-28T00:09:53.009Z,1.71
2023-02-28T00:10:53.047Z,1.70
2023-02-28T00:11:53.107Z,1.68
2023-02-28T00:12:53.145Z,1.70
2023-02-28T00:13:53.172Z,1.71
2023-02-28T00:14:53.189Z,1.79
2023-02-28T00:15:53.228Z,1.81
2023-02-28T00:16:53.313Z,1.76
2023-02-28T00:17:53.279Z,1.67
2023-02-28T00:18:53.352Z,1.78
2023-02-28T00:19:53.382Z,1.67
2023-02-28T00:20:53.450Z,1.71
2023-02-28T00:21:53.447Z,1.75
2023-02-28T00:22:53.495Z,1.75
2023-02-28T00:23:53.530Z,1.78
2023-02-28T00:24:53.550Z,1.92
2023-02-28T00:25:53.581Z,1.97
2023-02-28T00:26:53.611Z,1.95
2023-02-28T00:27:53.655Z,2.00
2023-02-28T00:28:53.685Z,2.15
2023-02-28T00:29:53.700Z,2.25
2023-02-28T00:30:53.767Z,2.19
2023-02-28T00:31:53.756Z,2.22
2023-02-28T00:32:53.738Z,2.22
2023-02-28T00:33:53.768Z,2.23
2023-02-28T00:34:53.834Z,2.25
2023-02-28T00:35:53.886Z,2.21
2023-02-28T00:36:53.919Z,2.39
2023-02-28T00:37:53.977Z,2.33
2023-02-28T00:38:54.008Z,2.36
2023-02-28T00:39:54.040Z,2.43
2023-02-28T00:40:54.087Z,2.50
2023-02-28T00:41:54.130Z,2.55
2023-02-28T00:42:54.174Z,2.59
2023-02-28T00:43:54.304Z,2.64
2023-02-28T00:44:54.200Z,2.62
2023-02-28T00:45:54.251Z,2.64
2023-02-28T00:46:54.284Z,2.61
2023-02-28T00:47:54.310Z,2.61
2023-02-28T00:48:54.369Z,2.51
2023-02-28T00:49:54.396Z,2.46
2023-02-28T00:50:54.423Z,2.40
2023-02-28T00:51:54.450Z,2.40
2023-02-28T00:52:54.472Z,2.40
2023-02-28T00:53:54.522Z,2.16
2023-02-28T00:54:54.570Z,1.93
2023-02-28T00:55:54.610Z,1.68
2023-02-28T00:56:54.639Z,1.57
2023-02-28T00:57:54.673Z,1.52
2023-02-28T00:58:54.716Z,1.58
2023-02-28T00:59:54.753Z,1.66
2023-02-28T01:00:54.895Z,1.75
2023-02-28T01:01:54.845Z,1.78
2023-02-28T01:02:54.801Z,2.00
2023-02-28T01:03:54.820Z,2.00
2023-02-28T01:04:54.862Z,2.01
2023-02-28T01:05:55.745Z,2.14
2023-02-28T01:06:55.036Z,2.14
2023-02-28T01:07:54.939Z,2.14
2023-02-28T01:08:54.953Z,2.18
2023-02-28T01:09:55.013Z,2.19
2023-02-28T01:10:55.043Z,2.19
2023-02-28T01:11:55.073Z,2.21
2023-02-28T01:12:55.104Z,2.23
2023-02-28T01:13:55.133Z,2.23
2023-02-28T01:14:55.173Z,2.23
2023-02-28T01:15:55.260Z,2.23
2023-02-28T01:16:55.246Z,2.25
2023-02-28T01:17:55.294Z,2.32
2023-02-28T01:18:55.334Z,2.33
2023-02-28T01:19:55.390Z,2.32
2023-02-28T01:20:55.429Z,2.32
2023-02-28T01:21:55.456Z,2.21
2023-02-28T01:22:55.527Z,2.25
2023-02-28T01:23:55.558Z,2.25
2023-02-28T01:24:55.596Z,2.25
2023-02-28T01:25:55.626Z,2.21
2023-02-28T01:26:55.693Z,2.12
2023-02-28T01:27:55.728Z,2.07
2023-02-28T01:28:55.747Z,2.04
2023-02-28T01:29:55.777Z,2.01
2023-02-28T01:30:55.851Z,1.92
2023-02-28T01:31:55.872Z,1.88
2023-02-28T01:32:55.846Z,1.86
2023-02-28T01:33:55.856Z,1.85
2023-02-28T01:34:55.909Z,1.89
2023-02-28T01:35:55.992Z,1.97
2023-02-28T01:36:55.974Z,1.98
2023-02-28T01:37:58.412Z,1.97
2023-02-28T01:38:56.046Z,1.97
2023-02-28T01:39:56.104Z,1.93
2023-02-28T01:40:56.193Z,1.86
2023-02-28T01:41:56.136Z,1.82
2023-02-28T01:42:56.165Z,1.78
2023-02-28T01:43:56.208Z,1.67
2023-02-28T01:44:56.258Z,1.63
2023-02-28T01:45:56.314Z,1.63
2023-02-28T01:46:56.349Z,1.58
2023-02-28T01:47:56.363Z,1.58
2023-02-28T01:48:56.392Z,1.53
2023-02-28T01:49:56.445Z,1.46
2023-02-28T01:50:56.482Z,1.45
2023-02-28T01:51:56.522Z,1.42
2023-02-28T01:52:56.552Z,1.42
2023-02-28T01:53:56.594Z,1.34
2023-02-28T01:54:56.644Z,1.40
2023-02-28T01:55:56.711Z,1.46
2023-02-28T01:56:56.747Z,1.46
2023-02-28T01:57:56.791Z,1.46
2023-02-28T01:58:56.821Z,1.48
2023-02-28T01:59:56.874Z,1.56
2023-02-28T02:00:56.903Z,1.63
2023-02-28T02:01:57.030Z,1.67
2023-02-28T02:02:57.029Z,1.66
2023-02-28T02:03:57.022Z,1.64
2023-02-28T02:04:57.053Z,1.66
2023-02-28T02:05:57.093Z,1.61
2023-02-28T02:06:57.123Z,1.52
2023-02-28T02:07:57.175Z,1.46
2023-02-28T02:08:57.214Z,1.46
2023-02-28T02:09:57.254Z,1.43
2023-02-28T02:10:57.290Z,1.45
2023-02-28T02:11:57.345Z,1.45
2023-02-28T02:12:57.373Z,1.40
2023-02-28T02:13:57.430Z,1.45
2023-02-28T02:14:57.456Z,1.40
2023-02-28T02:15:57.504Z,1.31
2023-02-28T02:16:57.554Z,1.28
2023-02-28T02:17:57.586Z,1.16
2023-02-28T02:18:57.618Z,1.18
2023-02-28T02:19:57.652Z,1.16
2023-02-28T02:20:57.697Z,1.21
2023-02-28T02:21:57.729Z,1.24
2023-02-28T02:22:57.765Z,1.25
2023-02-28T02:23:57.809Z,1.25
2023-02-28T02:24:57.856Z,1.27
2023-02-28T02:25:57.903Z,1.25
2023-02-28T02:26:57.936Z,1.18
2023-02-28T02:27:57.965Z,1.24
2023-02-28T02:28:58.022Z,1.27
2023-02-28T02:29:58.073Z,1.27
2023-02-28T02:30:58.126Z,1.27
2023-02-28T02:31:58.184Z,1.24
2023-02-28T02:32:58.198Z,1.20
2023-02-28T02:33:58.234Z,1.16
2023-02-28T02:34:58.259Z,1.13
2023-02-28T02:35:58.341Z,1.20
2023-02-28T02:36:58.316Z,1.20
2023-02-28T02:37:58.390Z,1.16
2023-02-28T02:38:58.416Z,1.12
2023-02-28T02:39:58.446Z,1.07
2023-02-28T02:40:58.482Z,1.04
2023-02-28T02:41:58.506Z,1.07
2023-02-28T02:42:58.527Z,1.02
2023-02-28T02:43:58.574Z,0.94
2023-02-28T02:44:58.597Z,0.89
2023-02-28T02:45:58.625Z,0.89
2023-02-28T02:46:58.695Z,0.91
2023-02-28T02:47:58.674Z,0.88
2023-02-28T02:48:58.717Z,0.86
2023-02-28T02:49:58.753Z,0.86
2023-02-28T02:50:58.810Z,0.84
2023-02-28T02:51:58.840Z,0.81
2023-02-28T02:52:58.869Z,0.82
2023-02-28T02:53:58.918Z,0.76
2023-02-28T02:54:58.954Z,0.73
2023-02-28T02:55:58.979Z,0.74
2023-02-28T02:56:59.008Z,0.71
2023-02-28T02:57:59.040Z,0.68
2023-02-28T02:58:59.089Z,0.71
2023-02-28T02:59:59.143Z,0.70
2023-02-28T03:00:59.231Z,0.67
2023-02-28T03:01:59.161Z,0.56
2023-02-28T03:02:59.192Z,0.49
2023-02-28T03:03:59.364Z,0.42
2023-02-28T03:04:59.259Z,0.39
2023-02-28T03:05:59.299Z,0.48
2023-02-28T03:06:59.332Z,0.49
2023-02-28T03:07:59.370Z,0.44
2023-02-28T03:08:59.403Z,0.44
2023-02-28T03:09:59.478Z,0.42
2023-02-28T03:10:59.514Z,0.44
2023-02-28T03:11:59.561Z,0.36
2023-02-28T03:12:59.609Z,0.39
2023-02-28T03:13:59.644Z,0.39
2023-02-28T03:14:59.684Z,0.44
2023-02-28T03:15:59.737Z,0.47
2023-02-28T03:16:59.771Z,0.51
2023-02-28T03:17:59.820Z,0.59
2023-02-28T03:18:59.862Z,0.59
2023-02-28T03:19:59.905Z,0.51
2023-02-28T03:20:59.932Z,0.55
2023-02-28T03:21:59.993Z,0.52
2023-02-28T03:23:00.030Z,0.55
2023-02-28T03:24:00.056Z,0.59
2023-02-28T03:25:00.103Z,0.47
2023-02-28T03:26:00.138Z,0.45
2023-02-28T03:27:00.175Z,0.51
2023-02-28T03:28:00.216Z,0.52
2023-02-28T03:29:00.255Z,0.52
2023-02-28T03:30:00.330Z,0.55
2023-02-28T03:31:00.346Z,0.59
2023-02-28T03:32:00.498Z,0.52
2023-02-28T03:33:00.403Z,0.49
2023-02-28T03:34:00.443Z,0.48
2023-02-28T03:35:00.474Z,0.61
2023-02-28T03:36:00.622Z,0.70
2023-02-28T03:37:00.610Z,0.70
2023-02-28T03:38:00.649Z,0.73
2023-02-28T03:39:00.686Z,0.66
2023-02-28T03:40:00.732Z,0.74
2023-02-28T03:41:00.759Z,0.70
2023-02-28T03:42:00.781Z,0.71
2023-02-28T03:43:00.811Z,0.73
2023-02-28T03:44:00.839Z,0.85
2023-02-28T03:45:00.874Z,0.84
2023-02-28T03:46:00.930Z,0.85
2023-02-28T03:47:00.979Z,0.86
2023-02-28T03:48:01.023Z,0.82
2023-02-28T03:49:01.077Z,0.81
2023-02-28T03:50:01.139Z,0.73
2023-02-28T03:51:01.101Z,0.74
2023-02-28T03:52:01.142Z,0.66
2023-02-28T03:53:01.200Z,0.64
2023-02-28T03:54:01.227Z,0.68
2023-02-28T03:55:01.273Z,0.70
2023-02-28T03:56:01.321Z,0.71
2023-02-28T03:57:01.361Z,0.68
2023-02-28T03:58:01.380Z,0.64
2023-02-28T03:59:01.421Z,0.52
2023-02-28T04:00:01.470Z,0.37
2023-02-28T04:01:01.546Z,0.34
2023-02-28T04:02:01.598Z,0.34
2023-02-28T04:03:01.563Z,0.18
2023-02-28T04:04:01.590Z,0.02
2023-02-28T04:05:01.599Z,-0.10
2023-02-28T04:06:01.669Z,-0.15
2023-02-28T04:07:01.721Z,-0.18
2023-02-28T04:08:01.771Z,-0.18
2023-02-28T04:09:01.836Z,-0.18
2023-02-28T04:10:01.893Z,-0.15
2023-02-28T04:11:01.947Z,-0.09
2023-02-28T04:12:01.983Z,-0.07
2023-02-28T04:13:02.033Z,-0.02
2023-02-28T04:14:02.101Z,0.01
2023-02-28T04:15:02.155Z,0.01
2023-02-28T04:16:02.238Z,0.05
2023-02-28T04:17:02.210Z,-0.09
2023-02-28T04:18:02.270Z,-0.09
2023-02-28T04:19:02.330Z,-0.18
2023-02-28T04:20:02.389Z,-0.21
2023-02-28T04:21:02.440Z,-0.12
2023-02-28T04:22:02.485Z,-0.05
2023-02-28T04:23:02.521Z,-0.13
2023-02-28T04:24:02.607Z,-0.12
2023-02-28T04:25:02.644Z,-0.17
2023-02-28T04:26:02.707Z,-0.24
2023-02-28T04:27:02.765Z,-0.24
2023-02-28T04:28:02.873Z,-0.23
2023-02-28T04:29:02.868Z,-0.20
2023-02-28T04:30:02.882Z,-0.21
2023-02-28T04:31:02.901Z,-0.17
2023-02-28T04:32:02.976Z,-0.12
2023-02-28T04:33:02.900Z,-0.09
2023-02-28T04:34:02.941Z,-0.05
2023-02-28T04:35:02.935Z,0.01
2023-02-28T04:36:03.060Z,0.02
2023-02-28T04:37:12.733Z,0.00
2023-02-28T04:38:03.083Z,-0.05
2023-02-28T04:39:03.135Z,-0.02
2023-02-28T04:40:03.174Z,-0.09
2023-02-28T04:41:03.214Z,0.01
2023-02-28T04:42:03.254Z,0.05
2023-02-28T04:43:03.283Z,-0.07
2023-02-28T04:44:03.344Z,-0.06
2023-02-28T04:45:03.383Z,-0.10
2023-02-28T04:46:03.502Z,-0.12
2023-02-28T04:47:03.508Z,-0.20
2023-02-28T04:48:03.481Z,-0.21
2023-02-28T04:49:03.462Z,-0.24
2023-02-28T04:50:03.513Z,-0.36
2023-02-28T04:51:03.570Z,-0.51
2023-02-28T04:52:03.653Z,-0.48
2023-02-28T04:53:03.639Z,-0.57
2023-02-28T04:54:03.709Z,-0.60
2023-02-28T04:55:03.688Z,-0.69
2023-02-28T04:56:03.741Z,-0.67
2023-02-28T04:57:03.811Z,-0.63
2023-02-28T04:58:03.796Z,-0.60
2023-02-28T04:59:03.853Z,-0.57
2023-02-28T05:00:03.909Z,-0.51
2023-02-28T05:01:03.961Z,-0.41
2023-02-28T05:02:04.056Z,-0.36
2023-02-28T05:03:04.019Z,-0.26
2023-02-28T05:04:04.081Z,-0.23
2023-02-28T05:05:04.172Z,-0.21
2023-02-28T05:06:04.160Z,-0.27
2023-02-28T05:07:04.234Z,-0.28
2023-02-28T05:08:04.289Z,-0.24
2023-02-28T05:09:04.364Z,-0.23
2023-02-28T05:10:05.935Z,-0.17
2023-02-28T05:11:04.349Z,-0.12
2023-02-28T05:12:04.420Z,-0.10
2023-02-28T05:13:04.402Z,-0.10
2023-02-28T05:14:04.469Z,-0.12
2023-02-28T05:15:04.541Z,-0.17
2023-02-28T05:16:04.566Z,-0.24
2023-02-28T05:17:04.526Z,-0.26
2023-02-28T05:18:04.599Z,-0.30
2023-02-28T05:19:04.877Z,-0.30
2023-02-28T05:20:15.111Z,-0.30
2023-02-28T05:21:04.752Z,-0.33
2023-02-28T05:22:04.815Z,-0.28
2023-02-28T05:23:04.874Z,-0.30
2023-02-28T05:24:04.941Z,-0.33
2023-02-28T05:25:05.022Z,-0.31
2023-02-28T05:26:04.993Z,-0.35
2023-02-28T05:27:05.041Z,-0.39
2023-02-28T05:28:05.108Z,-0.38
2023-02-28T05:29:05.164Z,-0.33
2023-02-28T05:30:05.242Z,-0.45
2023-02-28T05:31:05.210Z,-0.39
2023-02-28T05:32:05.377Z,-0.38
2023-02-28T05:33:05.264Z,-0.35
2023-02-28T05:34:05.397Z,-0.23
2023-02-28T05:35:05.302Z,-0.13
2023-02-28T05:36:05.428Z,-0.09
2023-02-28T05:37:05.352Z,-0.09
2023-02-28T05:38:05.403Z,-0.10
2023-02-28T05:39:05.463Z,-0.09
2023-02-28T05:40:05.512Z,-0.15
2023-02-28T05:41:05.571Z,-0.10
2023-02-28T05:42:05.621Z,-0.05
2023-02-28T05:43:05.660Z,-0.05
2023-02-28T05:44:05.704Z,0.06
2023-02-28T05:45:05.762Z,0.01
2023-02-28T05:46:05.841Z,0.00
2023-02-28T05:47:05.847Z,-0.09
2023-02-28T05:48:05.845Z,-0.10
2023-02-28T05:49:05.957Z,-0.09
2023-02-28T05:50:05.891Z,-0.13
2023-02-28T05:51:05.891Z,-0.21
2023-02-28T05:52:05.885Z,-0.18
2023-02-28T05:53:05.970Z,-0.18
2023-02-28T05:54:05.985Z,-0.17
2023-02-28T05:55:05.973Z,-0.10
2023-02-28T05:56:06.032Z,-0.10
2023-02-28T05:57:12.619Z,-0.07
2023-02-28T05:58:06.091Z,-0.12
2023-02-28T05:59:06.098Z,-0.12
2023-02-28T06:00:06.165Z,-0.05
2023-02-28T06:01:06.213Z,-0.09
2023-02-28T06:02:06.276Z,-0.02
2023-02-28T06:03:06.272Z,-0.03
2023-02-28T06:04:06.276Z,-0.03
2023-02-28T06:05:06.277Z,0.00
2023-02-28T06:06:06.277Z,-0.06
2023-02-28T06:07:06.348Z,-0.07
2023-02-28T06:08:06.398Z,-0.09
2023-02-28T06:09:06.517Z,-0.18
2023-02-28T06:10:06.517Z,-0.20
2023-02-28T06:11:06.619Z,-0.26
2023-02-28T06:12:06.633Z,-0.41
2023-02-28T06:13:06.648Z,-0.53
2023-02-28T06:14:06.718Z,-0.56
2023-02-28T06:15:06.730Z,-0.63
2023-02-28T06:16:06.712Z,-0.57
2023-02-28T06:17:06.765Z,-0.66
2023-02-28T06:18:06.797Z,-0.69
2023-02-28T06:19:06.813Z,-0.77
2023-02-28T06:20:06.865Z,-0.70
2023-02-28T06:21:06.864Z,-0.69
2023-02-28T06:22:06.930Z,-0.70
2023-02-28T06:23:07.003Z,-0.67
2023-02-28T06:24:07.023Z,-0.51
2023-02-28T06:25:07.064Z,-0.26
2023-02-28T06:26:07.015Z,-0.09
2023-02-28T06:27:07.034Z,-0.05
2023-02-28T06:28:07.052Z,0.00
2023-02-28T06:29:07.131Z,0.06
2023-02-28T06:30:07.153Z,0.08
2023-02-28T06:31:07.243Z,-0.20
2023-02-28T06:32:07.351Z,-0.39
2023-02-28T06:33:07.274Z,-0.45
2023-02-28T06:34:07.338Z,-0.48
2023-02-28T06:35:07.383Z,-0.45
2023-02-28T06:36:07.420Z,-0.54
2023-02-28T06:37:07.443Z,-0.45
2023-02-28T06:38:07.488Z,-0.45
2023-02-28T06:39:07.503Z,-0.59
2023-02-28T06:40:07.584Z,-0.36
2023-02-28T06:41:07.556Z,-0.13
2023-02-28T06:42:07.634Z,0.30
2023-02-28T06:43:07.634Z,0.67
2023-02-28T06:44:07.604Z,1.04
2023-02-28T06:45:07.675Z,1.30
2023-02-28T06:46:07.768Z,1.66
2023-02-28T06:47:07.759Z,1.88
2023-02-28T06:48:07.818Z,2.12
2023-02-28T06:49:07.897Z,2.37
2023-02-28T06:50:07.882Z,2.50
2023-02-28T06:51:07.867Z,2.58
2023-02-28T06:52:07.942Z,2.77
2023-02-28T06:53:08.019Z,3.11
2023-02-28T06:54:08.098Z,3.19
2023-02-28T06:55:08.106Z,3.06
2023-02-28T06:56:08.128Z,2.83
2023-02-28T06:57:08.134Z,2.94
2023-02-28T06:58:08.186Z,2.90
2023-02-28T06:59:08.279Z,2.93
2023-02-28T07:00:08.254Z,3.01
2023-02-28T07:01:08.407Z,3.03
2023-02-28T07:02:08.381Z,2.87
2023-02-28T07:03:08.389Z,3.11
2023-02-28T07:04:08.416Z,3.31
2023-02-28T07:05:08.428Z,3.53
2023-02-28T07:06:08.436Z,3.64
2023-02-28T07:07:08.477Z,3.66
2023-02-28T07:08:08.494Z,3.76
2023-02-28T07:09:08.496Z,4.02
2023-02-28T07:10:08.536Z,3.68
2023-02-28T07:11:08.556Z,3.68
2023-02-28T07:12:08.575Z,3.67
2023-02-28T07:13:08.634Z,3.82
2023-02-28T07:14:08.632Z,3.88
2023-02-28T07:15:08.645Z,4.45
2023-02-28T07:16:08.723Z,5.02
2023-02-28T07:17:08.697Z,5.16
2023-02-28T07:18:08.737Z,5.01
2023-02-28T07:19:08.767Z,5.40
2023-02-28T07:20:08.764Z,5.69
2023-02-28T07:21:08.773Z,5.76
2023-02-28T07:22:08.787Z,5.79
2023-02-28T07:23:08.786Z,6.16
2023-02-28T07:24:08.779Z,6.25
2023-02-28T07:25:08.842Z,6.35
2023-02-28T07:26:08.908Z,6.52
2023-02-28T07:27:08.958Z,6.75
2023-02-28T07:28:09.009Z,6.80
2023-02-28T07:29:09.010Z,6.74
2023-02-28T07:30:09.020Z,6.22
2023-02-28T07:31:09.103Z,5.28
2023-02-28T07:32:09.124Z,4.53
2023-02-28T07:33:09.106Z,3.77
2023-02-28T07:34:09.411Z,3.18
2023-02-28T07:35:09.255Z,2.83
2023-02-28T07:36:09.242Z,2.69
2023-02-28T07:37:09.312Z,3.16
2023-02-28T07:38:09.325Z,3.40
2023-02-28T07:39:09.405Z,3.92
2023-02-28T07:40:09.470Z,4.79
2023-02-28T07:41:09.450Z,4.64
2023-02-28T07:42:09.525Z,5.08
2023-02-28T07:43:09.575Z,5.70
2023-02-28T07:44:09.629Z,5.94
2023-02-28T07:45:09.682Z,6.78
2023-02-28T07:46:09.779Z,7.07
2023-02-28T07:47:09.780Z,7.50
2023-02-28T07:48:09.802Z,7.74
2023-02-28T07:49:09.800Z,8.09
2023-02-28T07:50:09.838Z,8.38
2023-02-28T07:51:09.889Z,8.35
2023-02-28T07:52:11.996Z,8.32
2023-02-28T07:53:09.885Z,8.35
2023-02-28T07:54:09.984Z,8.23
2023-02-28T07:55:09.985Z,8.13
2023-02-28T07:56:09.996Z,8.21
2023-02-28T07:57:13.738Z,8.53
2023-02-28T07:58:10.048Z,8.63
2023-02-28T07:59:10.098Z,8.66
2023-02-28T08:00:10.079Z,8.74
2023-02-28T08:01:10.149Z,8.63
2023-02-28T08:02:10.132Z,8.75
2023-02-28T08:03:10.171Z,8.71
2023-02-28T08:04:10.171Z,8.86
2023-02-28T08:05:10.309Z,9.24
2023-02-28T08:06:10.231Z,9.26
2023-02-28T08:07:10.282Z,9.29
2023-02-28T08:08:10.305Z,9.44
2023-02-28T08:09:10.277Z,9.80
2023-02-28T08:10:10.294Z,10.09
2023-02-28T08:11:10.315Z,10.12
2023-02-28T08:12:10.311Z,10.06
2023-02-28T08:13:10.367Z,9.87
2023-02-28T08:14:10.424Z,10.10
2023-02-28T08:15:10.446Z,10.09
2023-02-28T08:16:10.581Z,10.06
2023-02-28T08:17:10.538Z,9.95
2023-02-28T08:18:10.565Z,10.03
2023-02-28T08:19:10.555Z,10.24
2023-02-28T08:20:10.608Z,10.49
2023-02-28T08:21:10.621Z,10.68
2023-02-28T08:22:10.607Z,10.87
2023-02-28T08:23:10.628Z,11.07
2023-02-28T08:24:10.649Z,11.08
2023-02-28T08:25:10.658Z,11.20
2023-02-28T08:26:10.667Z,11.20
2023-02-28T08:27:10.686Z,11.33
2023-02-28T08:28:10.708Z,11.51
2023-02-28T08:29:10.730Z,11.44
2023-02-28T08:30:10.740Z,11.33
2023-02-28T08:31:10.809Z,11.59
2023-02-28T08:32:27.239Z,11.91
2023-02-28T08:33:10.956Z,12.21
2023-02-28T08:34:10.913Z,12.03
2023-02-28T08:35:10.962Z,12.30
2023-02-28T08:36:10.985Z,12.12
2023-02-28T08:37:10.985Z,11.91
2023-02-28T08:38:10.995Z,11.88
2023-02-28T08:39:11.014Z,11.88
2023-02-28T08:40:11.035Z,11.97
2023-02-28T08:41:11.063Z,12.07
2023-02-28T08:42:11.077Z,12.18
2023-02-28T08:43:11.088Z,12.69
2023-02-28T08:44:11.106Z,12.98
2023-02-28T08:45:11.116Z,13.26
2023-02-28T08:46:11.176Z,13.11
2023-02-28T08:47:11.153Z,13.09
2023-02-28T08:48:11.162Z,12.63
2023-02-28T08:49:11.178Z,12.32
2023-02-28T08:50:11.182Z,12.35
2023-02-28T08:51:11.223Z,12.29
2023-02-28T08:52:11.238Z,12.58
2023-02-28T08:53:11.267Z,12.84
2023-02-28T08:54:11.266Z,12.53
2023-02-28T08:55:11.320Z,12.28
2023-02-28T08:56:11.330Z,12.25
2023-02-28T08:57:11.345Z,11.95
2023-02-28T08:58:11.339Z,11.96
2023-02-28T08:59:11.358Z,12.14
2023-02-28T09:00:11.364Z,12.35
2023-02-28T09:01:11.393Z,12.78
2023-02-28T09:02:11.428Z,12.72
2023-02-28T09:03:11.431Z,12.83
2023-02-28T09:04:11.429Z,12.11
2023-02-28T09:05:11.482Z,12.25
2023-02-28T09:06:11.470Z,12.58
2023-02-28T09:07:11.473Z,12.32
2023-02-28T09:08:11.471Z,12.84
2023-02-28T09:09:11.463Z,12.91
2023-02-28T09:10:11.481Z,12.80
2023-02-28T09:11:11.492Z,12.50
2023-02-28T09:12:11.483Z,12.39
2023-02-28T09:13:12.434Z,12.75
2023-02-28T09:14:11.504Z,12.63
2023-02-28T09:15:11.546Z,12.25
2023-02-28T09:16:11.650Z,12.10
2023-02-28T09:17:11.588Z,12.69
2023-02-28T09:18:11.590Z,13.52
2023-02-28T09:19:11.618Z,13.87
2023-02-28T09:20:11.621Z,13.46
2023-02-28T09:21:11.628Z,13.28
2023-02-28T09:22:11.633Z,13.05
2023-02-28T09:23:11.660Z,13.08
2023-02-28T09:24:11.649Z,12.69
2023-02-28T09:25:11.649Z,11.41
2023-02-28T09:26:11.709Z,9.92
2023-02-28T09:27:11.971Z,9.19
2023-02-28T09:28:11.792Z,8.97
2023-02-28T09:29:11.834Z,9.80
2023-02-28T09:30:11.872Z,10.65
2023-02-28T09:31:11.957Z,11.00
2023-02-28T09:32:11.917Z,10.06
2023-02-28T09:33:11.946Z,9.39
2023-02-28T09:34:12.055Z,9.05
2023-02-28T09:35:12.079Z,9.18
2023-02-28T09:36:12.136Z,10.31
2023-02-28T09:37:12.102Z,11.18
2023-02-28T09:38:12.346Z,11.51
2023-02-28T09:39:12.100Z,11.65
2023-02-28T09:40:12.151Z,12.32
2023-02-28T09:41:12.260Z,12.54
2023-02-28T09:42:12.168Z,12.99
2023-02-28T09:43:12.230Z,13.09
2023-02-28T09:44:12.936Z,13.42
2023-02-28T09:45:12.339Z,13.11
2023-02-28T09:46:12.337Z,12.81
2023-02-28T09:47:12.271Z,12.48
2023-02-28T09:48:12.293Z,12.76
2023-02-28T09:49:12.292Z,12.81
2023-02-28T09:50:12.522Z,12.99
2023-02-28T09:51:12.353Z,12.78
2023-02-28T09:52:12.352Z,12.30
2023-02-28T09:53:12.360Z,12.10
2023-02-28T09:54:13.125Z,11.89
2023-02-28T09:55:12.421Z,12.39
2023-02-28T09:56:13.215Z,12.80
2023-02-28T09:57:12.376Z,11.88
2023-02-28T09:58:13.086Z,11.85
2023-02-28T09:59:12.618Z,12.05
2023-02-28T10:00:12.507Z,12.03
2023-02-28T10:01:12.546Z,11.97
2023-02-28T10:02:12.541Z,11.96
2023-02-28T10:03:13.492Z,12.57
2023-02-28T10:04:13.312Z,12.87
2023-02-28T10:05:12.627Z,13.42
2023-02-28T10:06:12.634Z,13.86
2023-02-28T10:07:12.661Z,14.00
2023-02-28T10:08:12.664Z,13.94
2023-02-28T10:09:12.671Z,13.71
2023-02-28T10:10:12.693Z,13.17
2023-02-28T10:11:12.698Z,12.36
2023-02-28T10:12:12.724Z,12.00
2023-02-28T10:13:12.743Z,11.80
2023-02-28T10:14:12.767Z,12.00
2023-02-28T10:15:12.767Z,12.48
2023-02-28T10:16:12.857Z,13.06
2023-02-28T10:17:12.840Z,12.86
2023-02-28T10:18:13.754Z,12.40
2023-02-28T10:19:12.886Z,12.72
2023-02-28T10:20:12.916Z,12.66
2023-02-28T10:21:12.922Z,12.81
2023-02-28T10:22:12.934Z,12.28
2023-02-28T10:23:12.966Z,12.81
2023-02-28T10:25:13.046Z,12.50
2023-02-28T10:26:13.025Z,13.12
2023-02-28T10:27:13.101Z,12.90
2023-02-28T10:29:39.115Z,12.48
2023-02-28T10:32:05.107Z,12.28
2023-02-28T10:33:05.123Z,11.96
2023-02-28T10:36:57.034Z,11.04
2023-02-28T10:37:57.106Z,11.35
2023-02-28T10:38:57.100Z,12.21
2023-02-28T10:39:57.193Z,11.96
2023-02-28T10:40:57.240Z,11.43
2023-02-28T10:41:57.257Z,10.23
2023-02-28T10:42:57.311Z,9.85
2023-02-28T10:43:57.316Z,9.87
2023-02-28T10:44:57.398Z,9.45
2023-02-28T10:45:57.464Z,9.24
2023-02-28T10:46:57.393Z,8.74
2023-02-28T10:47:57.485Z,8.21
2023-02-28T10:48:57.427Z,7.72
2023-02-28T10:49:57.434Z,7.78
2023-02-28T10:50:57.476Z,8.64
2023-02-28T10:51:57.545Z,8.27
2023-02-28T10:52:57.597Z,8.56
2023-02-28T10:54:02.284Z,9.27
2023-02-28T10:54:57.654Z,10.36
2023-02-28T10:55:57.627Z,10.84
2023-02-28T10:56:57.941Z,10.86
2023-02-28T10:57:57.663Z,11.16
2023-02-28T10:58:57.757Z,10.71
2023-02-28T10:59:57.785Z,10.48
2023-02-28T11:00:57.827Z,10.65
2023-02-28T11:01:57.922Z,10.86
2023-02-28T11:02:57.928Z,10.79
2023-02-28T11:03:57.983Z,11.25
2023-02-28T11:04:58.042Z,11.59
2023-02-28T11:05:58.006Z,11.07
2023-02-28T11:06:58.028Z,11.31
2023-02-28T11:07:57.997Z,11.19
2023-02-28T11:08:58.082Z,10.43
2023-02-28T11:09:58.066Z,9.44
2023-02-28T11:10:58.107Z,9.18
2023-02-28T11:11:58.162Z,9.30
2023-02-28T11:12:59.788Z,9.77
2023-02-28T11:13:58.196Z,9.08
2023-02-28T11:14:58.238Z,8.97
2023-02-28T11:15:58.289Z,8.84
2023-02-28T11:16:58.289Z,9.40
2023-02-28T11:17:58.307Z,9.84
2023-02-28T11:18:58.313Z,9.70
2023-02-28T11:19:58.328Z,9.77
2023-02-28T11:20:58.310Z,9.39
2023-02-28T11:21:58.553Z,9.31
2023-02-28T11:22:58.407Z,9.44
2023-02-28T11:23:58.408Z,9.44
2023-02-28T11:24:58.432Z,9.31
2023-02-28T11:25:58.445Z,9.24
2023-02-28T11:26:58.451Z,9.37
2023-02-28T11:27:58.455Z,9.05
2023-02-28T11:28:58.460Z,9.12
2023-02-28T11:29:58.453Z,8.84
2023-02-28T11:30:58.472Z,8.66
2023-02-28T11:31:58.474Z,9.36
2023-02-28T11:32:58.506Z,9.69
2023-02-28T11:33:58.500Z,10.46
2023-02-28T11:34:58.500Z,11.00
2023-02-28T11:35:58.560Z,11.26
2023-02-28T11:36:58.648Z,11.58
2023-02-28T11:37:58.613Z,11.37
2023-02-28T11:38:58.662Z,10.98
2023-02-28T11:39:58.726Z,10.89
2023-02-28T11:40:58.750Z,10.80
2023-02-28T11:41:58.793Z,11.12
2023-02-28T11:42:58.784Z,10.94
2023-02-28T11:43:58.912Z,11.01
2023-02-28T11:44:58.852Z,10.55
2023-02-28T11:45:59.792Z,10.59
2023-02-28T11:46:58.941Z,10.53
2023-02-28T11:47:59.061Z,10.84
2023-02-28T11:48:58.968Z,11.38
2023-02-28T11:49:59.208Z,11.25
2023-02-28T11:50:59.017Z,11.00
2023-02-28T11:51:59.023Z,11.30
2023-02-28T11:52:59.084Z,11.55
2023-02-28T11:53:59.096Z,11.34
2023-02-28T11:54:59.142Z,11.30
2023-02-28T11:56:00.113Z,11.51
2023-02-28T11:56:59.208Z,11.78
2023-02-28T11:57:59.412Z,11.07
2023-02-28T11:58:59.222Z,10.46
2023-02-28T11:59:59.365Z,10.30
2023-02-28T12:00:59.345Z,10.28
2023-02-28T12:01:59.769Z,10.53
2023-02-28T12:02:59.446Z,10.72
2023-02-28T12:03:59.472Z,11.10
2023-02-28T12:04:59.603Z,10.33
2023-02-28T12:05:59.528Z,10.87
2023-02-28T12:06:59.613Z,11.16
2023-02-28T12:07:59.599Z,10.89
2023-02-28T12:08:59.585Z,11.25
2023-02-28T12:09:59.606Z,11.52
2023-02-28T12:10:59.611Z,11.78
2023-02-28T12:11:59.692Z,11.81
2023-02-28T12:12:59.706Z,12.30
2023-02-28T12:13:59.752Z,11.99
2023-02-28T12:14:59.974Z,11.81
2023-02-28T12:15:59.884Z,12.03
2023-02-28T12:16:59.901Z,11.93
2023-02-28T12:17:59.911Z,11.12
2023-02-28T12:18:59.908Z,10.80
2023-02-28T12:19:59.987Z,11.40
2023-02-28T12:21:00.024Z,11.60
2023-02-28T12:21:59.956Z,10.72
2023-02-28T12:23:00.312Z,10.79
2023-02-28T12:24:00.129Z,10.86
2023-02-28T12:25:00.116Z,11.44
2023-02-28T12:26:00.136Z,11.73
2023-02-28T12:27:00.225Z,11.31
2023-02-28T12:28:00.228Z,11.15
2023-02-28T12:29:01.300Z,11.05
2023-02-28T12:30:00.290Z,10.79
2023-02-28T12:31:00.319Z,10.71
2023-02-28T12:32:00.522Z,11.07
2023-02-28T12:33:00.396Z,11.01
2023-02-28T12:34:00.470Z,10.65
2023-02-28T12:35:00.646Z,10.53
2023-02-28T12:36:00.572Z,10.07
2023-02-28T12:37:00.549Z,9.39
2023-02-28T12:38:00.670Z,8.99
2023-02-28T12:39:00.592Z,9.29
2023-02-28T12:40:00.631Z,9.40
2023-02-28T12:41:00.634Z,9.81
2023-02-28T12:42:00.720Z,10.05
2023-02-28T12:43:00.669Z,10.36
2023-02-28T12:44:00.701Z,10.43
2023-02-28T12:45:00.766Z,10.58
2023-02-28T12:46:00.865Z,10.51
2023-02-28T12:47:00.832Z,10.27
2023-02-28T12:48:00.841Z,10.28
2023-02-28T12:49:00.897Z,10.53
2023-02-28T12:50:00.935Z,10.02
2023-02-28T12:51:03.252Z,10.42
2023-02-28T12:52:01.002Z,11.02
2023-02-28T12:53:01.011Z,11.34
2023-02-28T12:54:01.030Z,11.10
2023-02-28T12:55:01.040Z,11.31
2023-02-28T12:56:01.086Z,11.04
2023-02-28T12:57:01.078Z,11.56
2023-02-28T12:58:01.103Z,11.26
2023-02-28T12:59:01.115Z,10.12
2023-02-28T13:00:01.113Z,10.55
2023-02-28T13:01:01.139Z,10.59
2023-02-28T13:02:01.170Z,10.13
2023-02-28T13:03:01.991Z,10.30
2023-02-28T13:04:01.253Z,10.43
2023-02-28T13:05:01.249Z,10.12
2023-02-28T13:06:01.254Z,9.97
2023-02-28T13:07:01.263Z,9.59
2023-02-28T13:08:01.283Z,9.26
2023-02-28T13:09:01.313Z,9.66
2023-02-28T13:10:01.347Z,9.73
2023-02-28T13:11:03.732Z,10.43
2023-02-28T13:12:01.403Z,10.84
2023-02-28T13:13:01.406Z,11.59